sensor_id;sensor_type;location;lat;lon;timestamp;P1;durP1;ratioP1;P2;durP2;ratioP2
79128;SDS011;68529;43.286;23.360;2023-12-20T00:01:18;4.50;;;3.30;;
79128;SDS011;68529;43.286;23.360;2023-12-20T00:03:43;3.60;;;3.30;;
79128;SDS011;68529;43.286;23.360;2023-12-20T00:06:09;4.97;;;3.17;;
79128;SDS011;68529;43.286;23.360;2023-12-20T00:08:34;3.57;;;3.23;;
79128;SDS011;68529;43.286;23.360;2023-12-20T00:11:00;4.37;;;3.33;;
79128;SDS011;68529;43.286;23.360;2023-12-20T00:13:25;4.87;;;3.07;;
79128;SDS011;68529;43.286;23.360;2023-12-20T00:15:50;4.00;;;2.90;;
79128;SDS011;68529;43.286;23.360;2023-12-20T00:18:16;3.83;;;2.80;;
79128;SDS011;68529;43.286;23.360;2023-12-20T00:20:41;4.87;;;2.90;;
79128;SDS011;68529;43.286;23.360;2023-12-20T00:23:06;3.13;;;2.70;;
79128;SDS011;68529;43.286;23.360;2023-12-20T00:25:33;2.50;;;2.30;;
79128;SDS011;68529;43.286;23.360;2023-12-20T00:27:59;3.50;;;3.10;;
79128;SDS011;68529;43.286;23.360;2023-12-20T00:30:25;3.13;;;2.83;;
79128;SDS011;68529;43.286;23.360;2023-12-20T00:32:50;3.70;;;3.03;;
79128;SDS011;68529;43.286;23.360;2023-12-20T00:35:15;3.73;;;3.03;;
79128;SDS011;68529;43.286;23.360;2023-12-20T00:37:41;4.57;;;2.60;;
79128;SDS011;68529;43.286;23.360;2023-12-20T00:40:08;3.23;;;2.70;;
79128;SDS011;68529;43.286;23.360;2023-12-20T00:42:34;3.10;;;2.80;;
79128;SDS011;68529;43.286;23.360;2023-12-20T00:45:00;3.80;;;2.93;;
79128;SDS011;68529;43.286;23.360;2023-12-20T00:47:26;3.33;;;2.80;;
79128;SDS011;68529;43.286;23.360;2023-12-20T00:49:51;3.03;;;2.70;;
79128;SDS011;68529;43.286;23.360;2023-12-20T00:52:17;2.63;;;2.43;;
79128;SDS011;68529;43.286;23.360;2023-12-20T00:54:43;4.27;;;2.93;;
79128;SDS011;68529;43.286;23.360;2023-12-20T00:57:08;6.07;;;4.10;;
79128;SDS011;68529;43.286;23.360;2023-12-20T00:59:34;4.70;;;3.37;;
79128;SDS011;68529;43.286;23.360;2023-12-20T01:01:59;3.07;;;2.70;;
79128;SDS011;68529;43.286;23.360;2023-12-20T01:04:25;4.73;;;3.53;;
79128;SDS011;68529;43.286;23.360;2023-12-20T01:06:50;4.07;;;3.20;;
79128;SDS011;68529;43.286;23.360;2023-12-20T01:09:17;4.47;;;3.20;;
79128;SDS011;68529;43.286;23.360;2023-12-20T01:11:43;4.57;;;3.30;;
79128;SDS011;68529;43.286;23.360;2023-12-20T01:14:08;3.63;;;3.33;;
79128;SDS011;68529;43.286;23.360;2023-12-20T01:16:34;4.17;;;3.30;;
79128;SDS011;68529;43.286;23.360;2023-12-20T01:18:59;3.40;;;3.10;;
79128;SDS011;68529;43.286;23.360;2023-12-20T01:21:25;5.13;;;4.13;;
79128;SDS011;68529;43.286;23.360;2023-12-20T01:23:50;4.23;;;3.70;;
79128;SDS011;68529;43.286;23.360;2023-12-20T01:26:15;6.17;;;3.60;;
79128;SDS011;68529;43.286;23.360;2023-12-20T01:28:41;4.77;;;3.77;;
79128;SDS011;68529;43.286;23.360;2023-12-20T01:31:07;4.80;;;3.50;;
79128;SDS011;68529;43.286;23.360;2023-12-20T01:33:33;5.00;;;3.53;;
79128;SDS011;68529;43.286;23.360;2023-12-20T01:35:58;5.60;;;3.57;;
79128;SDS011;68529;43.286;23.360;2023-12-20T01:38:24;6.03;;;3.67;;
79128;SDS011;68529;43.286;23.360;2023-12-20T01:40:49;4.13;;;3.33;;
79128;SDS011;68529;43.286;23.360;2023-12-20T01:43:15;4.97;;;3.03;;
79128;SDS011;68529;43.286;23.360;2023-12-20T01:45:40;5.03;;;3.50;;
79128;SDS011;68529;43.286;23.360;2023-12-20T01:48:06;5.93;;;4.00;;
79128;SDS011;68529;43.286;23.360;2023-12-20T01:50:33;4.97;;;3.87;;
79128;SDS011;68529;43.286;23.360;2023-12-20T01:53:01;5.20;;;3.90;;
79128;SDS011;68529;43.286;23.360;2023-12-20T01:55:27;5.43;;;3.70;;
79128;SDS011;68529;43.286;23.360;2023-12-20T01:57:56;3.67;;;3.00;;
79128;SDS011;68529;43.286;23.360;2023-12-20T02:00:23;8.07;;;5.40;;
79128;SDS011;68529;43.286;23.360;2023-12-20T02:02:51;5.33;;;4.60;;
79128;SDS011;68529;43.286;23.360;2023-12-20T02:05:18;3.33;;;3.03;;
79128;SDS011;68529;43.286;23.360;2023-12-20T02:07:43;3.57;;;2.83;;
79128;SDS011;68529;43.286;23.360;2023-12-20T02:10:09;3.57;;;3.10;;
79128;SDS011;68529;43.286;23.360;2023-12-20T02:12:34;4.80;;;2.27;;
79128;SDS011;68529;43.286;23.360;2023-12-20T02:15:00;2.23;;;2.03;;
79128;SDS011;68529;43.286;23.360;2023-12-20T02:17:26;3.33;;;2.63;;
79128;SDS011;68529;43.286;23.360;2023-12-20T02:19:52;2.50;;;2.30;;
79128;SDS011;68529;43.286;23.360;2023-12-20T02:22:18;3.00;;;2.70;;
79128;SDS011;68529;43.286;23.360;2023-12-20T02:31:26;2.17;;;1.97;;
79128;SDS011;68529;43.286;23.360;2023-12-20T02:33:52;3.13;;;2.70;;
79128;SDS011;68529;43.286;23.360;2023-12-20T02:36:17;3.53;;;2.27;;
79128;SDS011;68529;43.286;23.360;2023-12-20T02:38:42;2.20;;;2.00;;
79128;SDS011;68529;43.286;23.360;2023-12-20T02:41:08;2.37;;;2.13;;
79128;SDS011;68529;43.286;23.360;2023-12-20T02:43:33;3.37;;;2.63;;
79128;SDS011;68529;43.286;23.360;2023-12-20T02:45:59;3.97;;;2.13;;
79128;SDS011;68529;43.286;23.360;2023-12-20T02:48:24;3.77;;;2.93;;
79128;SDS011;68529;43.286;23.360;2023-12-20T02:50:49;3.10;;;2.80;;
79128;SDS011;68529;43.286;23.360;2023-12-20T02:53:15;3.20;;;2.80;;
79128;SDS011;68529;43.286;23.360;2023-12-20T02:55:41;3.07;;;2.70;;
79128;SDS011;68529;43.286;23.360;2023-12-20T02:58:06;3.33;;;2.70;;
79128;SDS011;68529;43.286;23.360;2023-12-20T03:00:32;3.90;;;3.17;;
79128;SDS011;68529;43.286;23.360;2023-12-20T03:02:57;5.70;;;2.83;;
79128;SDS011;68529;43.286;23.360;2023-12-20T03:05:24;3.80;;;3.17;;
79128;SDS011;68529;43.286;23.360;2023-12-20T03:07:50;3.83;;;3.00;;
79128;SDS011;68529;43.286;23.360;2023-12-20T03:10:15;4.10;;;3.00;;
79128;SDS011;68529;43.286;23.360;2023-12-20T03:12:40;3.63;;;2.63;;
79128;SDS011;68529;43.286;23.360;2023-12-20T03:15:06;2.43;;;2.23;;
79128;SDS011;68529;43.286;23.360;2023-12-20T03:17:31;3.17;;;2.80;;
79128;SDS011;68529;43.286;23.360;2023-12-20T03:19:57;3.07;;;2.70;;
79128;SDS011;68529;43.286;23.360;2023-12-20T03:22:22;3.87;;;2.50;;
79128;SDS011;68529;43.286;23.360;2023-12-20T03:24:47;3.63;;;2.20;;
79128;SDS011;68529;43.286;23.360;2023-12-20T03:27:13;3.43;;;2.20;;
79128;SDS011;68529;43.286;23.360;2023-12-20T03:29:38;2.57;;;2.20;;
79128;SDS011;68529;43.286;23.360;2023-12-20T03:32:04;3.37;;;2.07;;
79128;SDS011;68529;43.286;23.360;2023-12-20T03:34:29;2.70;;;2.17;;
79128;SDS011;68529;43.286;23.360;2023-12-20T03:36:54;3.07;;;2.13;;
79128;SDS011;68529;43.286;23.360;2023-12-20T03:39:20;2.57;;;2.20;;
79128;SDS011;68529;43.286;23.360;2023-12-20T03:41:45;2.63;;;2.30;;
79128;SDS011;68529;43.286;23.360;2023-12-20T03:44:10;3.20;;;2.33;;
79128;SDS011;68529;43.286;23.360;2023-12-20T03:46:36;2.80;;;2.27;;
79128;SDS011;68529;43.286;23.360;2023-12-20T03:49:01;4.07;;;2.37;;
79128;SDS011;68529;43.286;23.360;2023-12-20T03:51:27;3.50;;;2.73;;
79128;SDS011;68529;43.286;23.360;2023-12-20T03:53:52;5.13;;;3.10;;
79128;SDS011;68529;43.286;23.360;2023-12-20T03:56:17;13.30;;;8.30;;
79128;SDS011;68529;43.286;23.360;2023-12-20T03:58:43;4.17;;;3.50;;
79128;SDS011;68529;43.286;23.360;2023-12-20T04:01:11;3.47;;;2.83;;
79128;SDS011;68529;43.286;23.360;2023-12-20T04:03:37;4.57;;;3.67;;
79128;SDS011;68529;43.286;23.360;2023-12-20T04:06:03;4.03;;;2.90;;
79128;SDS011;68529;43.286;23.360;2023-12-20T04:08:29;3.63;;;2.70;;
79128;SDS011;68529;43.286;23.360;2023-12-20T04:10:54;3.33;;;2.70;;
79128;SDS011;68529;43.286;23.360;2023-12-20T04:13:19;3.33;;;2.80;;
79128;SDS011;68529;43.286;23.360;2023-12-20T04:15:45;3.33;;;2.70;;
79128;SDS011;68529;43.286;23.360;2023-12-20T04:18:10;3.07;;;2.53;;
79128;SDS011;68529;43.286;23.360;2023-12-20T04:20:35;2.80;;;2.30;;
79128;SDS011;68529;43.286;23.360;2023-12-20T04:23:01;3.60;;;2.90;;
79128;SDS011;68529;43.286;23.360;2023-12-20T04:25:26;4.73;;;3.57;;
79128;SDS011;68529;43.286;23.360;2023-12-20T04:27:51;5.10;;;4.00;;
79128;SDS011;68529;43.286;23.360;2023-12-20T04:30:17;3.70;;;2.80;;
79128;SDS011;68529;43.286;23.360;2023-12-20T04:32:42;5.50;;;4.57;;
79128;SDS011;68529;43.286;23.360;2023-12-20T04:35:08;4.00;;;3.60;;
79128;SDS011;68529;43.286;23.360;2023-12-20T04:37:33;3.70;;;3.17;;
79128;SDS011;68529;43.286;23.360;2023-12-20T04:39:59;4.47;;;3.80;;
79128;SDS011;68529;43.286;23.360;2023-12-20T04:42:24;5.37;;;4.37;;
79128;SDS011;68529;43.286;23.360;2023-12-20T04:44:49;2.60;;;2.40;;
79128;SDS011;68529;43.286;23.360;2023-12-20T04:47:15;2.30;;;2.10;;
79128;SDS011;68529;43.286;23.360;2023-12-20T04:49:40;3.10;;;2.80;;
79128;SDS011;68529;43.286;23.360;2023-12-20T04:52:05;4.83;;;3.47;;
79128;SDS011;68529;43.286;23.360;2023-12-20T04:54:31;3.90;;;2.80;;
79128;SDS011;68529;43.286;23.360;2023-12-20T04:56:56;4.00;;;2.67;;
79128;SDS011;68529;43.286;23.360;2023-12-20T04:59:21;2.67;;;2.43;;
79128;SDS011;68529;43.286;23.360;2023-12-20T05:01:47;3.23;;;2.70;;
79128;SDS011;68529;43.286;23.360;2023-12-20T05:04:12;2.53;;;2.33;;
79128;SDS011;68529;43.286;23.360;2023-12-20T05:06:38;2.93;;;2.50;;
79128;SDS011;68529;43.286;23.360;2023-12-20T05:09:03;3.53;;;2.27;;
79128;SDS011;68529;43.286;23.360;2023-12-20T05:11:29;2.70;;;2.43;;
79128;SDS011;68529;43.286;23.360;2023-12-20T05:13:54;2.80;;;2.40;;
79128;SDS011;68529;43.286;23.360;2023-12-20T05:16:19;3.97;;;2.17;;
79128;SDS011;68529;43.286;23.360;2023-12-20T05:18:46;2.50;;;2.30;;
79128;SDS011;68529;43.286;23.360;2023-12-20T05:21:13;2.90;;;2.50;;
79128;SDS011;68529;43.286;23.360;2023-12-20T05:23:38;3.83;;;2.60;;
79128;SDS011;68529;43.286;23.360;2023-12-20T05:26:03;2.60;;;2.27;;
79128;SDS011;68529;43.286;23.360;2023-12-20T05:28:29;3.10;;;2.00;;
79128;SDS011;68529;43.286;23.360;2023-12-20T05:30:54;4.13;;;2.03;;
79128;SDS011;68529;43.286;23.360;2023-12-20T05:33:19;3.57;;;3.20;;
79128;SDS011;68529;43.286;23.360;2023-12-20T05:35:45;3.97;;;3.27;;
79128;SDS011;68529;43.286;23.360;2023-12-20T05:38:10;4.10;;;3.00;;
79128;SDS011;68529;43.286;23.360;2023-12-20T05:40:35;3.73;;;3.30;;
79128;SDS011;68529;43.286;23.360;2023-12-20T05:43:01;3.37;;;3.07;;
79128;SDS011;68529;43.286;23.360;2023-12-20T05:45:27;3.53;;;3.20;;
79128;SDS011;68529;43.286;23.360;2023-12-20T05:47:52;4.07;;;3.10;;
79128;SDS011;68529;43.286;23.360;2023-12-20T05:50:17;4.43;;;3.30;;
79128;SDS011;68529;43.286;23.360;2023-12-20T05:52:43;4.67;;;3.23;;
79128;SDS011;68529;43.286;23.360;2023-12-20T05:55:09;4.77;;;3.70;;
79128;SDS011;68529;43.286;23.360;2023-12-20T05:57:34;5.53;;;4.77;;
79128;SDS011;68529;43.286;23.360;2023-12-20T06:00:00;4.87;;;3.60;;
79128;SDS011;68529;43.286;23.360;2023-12-20T06:02:25;4.93;;;3.60;;
79128;SDS011;68529;43.286;23.360;2023-12-20T06:04:50;4.47;;;3.13;;
79128;SDS011;68529;43.286;23.360;2023-12-20T06:07:16;4.97;;;3.90;;
79128;SDS011;68529;43.286;23.360;2023-12-20T06:09:42;5.63;;;3.83;;
79128;SDS011;68529;43.286;23.360;2023-12-20T06:12:07;6.23;;;4.70;;
79128;SDS011;68529;43.286;23.360;2023-12-20T06:14:33;6.50;;;3.67;;
79128;SDS011;68529;43.286;23.360;2023-12-20T06:16:59;4.40;;;3.73;;
79128;SDS011;68529;43.286;23.360;2023-12-20T06:19:26;4.17;;;3.47;;
79128;SDS011;68529;43.286;23.360;2023-12-20T06:21:51;6.33;;;4.23;;
79128;SDS011;68529;43.286;23.360;2023-12-20T06:24:16;6.63;;;5.17;;
79128;SDS011;68529;43.286;23.360;2023-12-20T06:26:42;8.03;;;6.20;;
79128;SDS011;68529;43.286;23.360;2023-12-20T06:29:07;13.47;;;9.93;;
79128;SDS011;68529;43.286;23.360;2023-12-20T06:31:33;13.60;;;8.90;;
79128;SDS011;68529;43.286;23.360;2023-12-20T06:33:58;8.77;;;6.40;;
79128;SDS011;68529;43.286;23.360;2023-12-20T06:36:25;10.70;;;7.33;;
79128;SDS011;68529;43.286;23.360;2023-12-20T06:38:51;10.37;;;6.47;;
79128;SDS011;68529;43.286;23.360;2023-12-20T06:41:16;9.33;;;7.23;;
79128;SDS011;68529;43.286;23.360;2023-12-20T06:43:42;6.63;;;5.77;;
79128;SDS011;68529;43.286;23.360;2023-12-20T06:46:08;9.83;;;7.10;;
79128;SDS011;68529;43.286;23.360;2023-12-20T06:48:33;8.27;;;6.20;;
79128;SDS011;68529;43.286;23.360;2023-12-20T06:51:00;6.70;;;5.83;;
79128;SDS011;68529;43.286;23.360;2023-12-20T06:53:27;8.93;;;6.20;;
79128;SDS011;68529;43.286;23.360;2023-12-20T06:55:52;7.93;;;6.07;;
79128;SDS011;68529;43.286;23.360;2023-12-20T06:58:18;8.13;;;5.13;;
79128;SDS011;68529;43.286;23.360;2023-12-20T07:00:43;7.00;;;5.40;;
79128;SDS011;68529;43.286;23.360;2023-12-20T07:03:09;10.90;;;5.47;;
79128;SDS011;68529;43.286;23.360;2023-12-20T07:05:34;7.07;;;5.80;;
79128;SDS011;68529;43.286;23.360;2023-12-20T07:07:59;4.70;;;4.30;;
79128;SDS011;68529;43.286;23.360;2023-12-20T08:01:18;21.80;;;16.20;;
79128;SDS011;68529;43.286;23.360;2023-12-20T08:03:43;13.60;;;11.40;;
79128;SDS011;68529;43.286;23.360;2023-12-20T08:06:09;28.20;;;19.00;;
79128;SDS011;68529;43.286;23.360;2023-12-20T08:08:34;26.13;;;18.30;;
79128;SDS011;68529;43.286;23.360;2023-12-20T08:10:59;35.73;;;24.90;;
79128;SDS011;68529;43.286;23.360;2023-12-20T08:13:25;15.20;;;11.60;;
79128;SDS011;68529;43.286;23.360;2023-12-20T08:15:52;21.03;;;15.63;;
79128;SDS011;68529;43.286;23.360;2023-12-20T08:18:18;15.77;;;11.43;;
79128;SDS011;68529;43.286;23.360;2023-12-20T08:20:43;18.90;;;13.77;;
79128;SDS011;68529;43.286;23.360;2023-12-20T08:23:09;13.53;;;10.87;;
79128;SDS011;68529;43.286;23.360;2023-12-20T08:25:34;12.33;;;11.00;;
79128;SDS011;68529;43.286;23.360;2023-12-20T08:28:01;15.03;;;13.43;;
79128;SDS011;68529;43.286;23.360;2023-12-20T08:30:27;11.80;;;10.37;;
79128;SDS011;68529;43.286;23.360;2023-12-20T08:32:52;11.17;;;9.20;;
79128;SDS011;68529;43.286;23.360;2023-12-20T08:35:17;11.10;;;9.90;;
79128;SDS011;68529;43.286;23.360;2023-12-20T08:37:43;12.47;;;11.10;;
79128;SDS011;68529;43.286;23.360;2023-12-20T08:40:09;12.37;;;10.30;;
79128;SDS011;68529;43.286;23.360;2023-12-20T08:42:35;10.33;;;9.23;;
79128;SDS011;68529;43.286;23.360;2023-12-20T08:45:00;28.67;;;18.73;;
79128;SDS011;68529;43.286;23.360;2023-12-20T08:47:26;19.80;;;14.60;;
79128;SDS011;68529;43.286;23.360;2023-12-20T08:49:51;19.83;;;14.93;;
79128;SDS011;68529;43.286;23.360;2023-12-20T08:52:21;26.03;;;18.90;;
79128;SDS011;68529;43.286;23.360;2023-12-20T08:54:52;36.67;;;25.33;;
79128;SDS011;68529;43.286;23.360;2023-12-20T08:57:19;26.67;;;18.33;;
79128;SDS011;68529;43.286;23.360;2023-12-20T08:59:49;22.30;;;16.27;;
79128;SDS011;68529;43.286;23.360;2023-12-20T09:02:17;17.63;;;13.03;;
79128;SDS011;68529;43.286;23.360;2023-12-20T09:04:43;17.10;;;13.10;;
79128;SDS011;68529;43.286;23.360;2023-12-20T09:07:24;11.83;;;10.03;;
79128;SDS011;68529;43.286;23.360;2023-12-20T09:09:51;11.40;;;9.23;;
79128;SDS011;68529;43.286;23.360;2023-12-20T09:12:19;12.77;;;10.33;;
79128;SDS011;68529;43.286;23.360;2023-12-20T09:14:48;47.83;;;29.30;;
79128;SDS011;68529;43.286;23.360;2023-12-20T09:17:15;31.83;;;23.73;;
79128;SDS011;68529;43.286;23.360;2023-12-20T09:19:42;39.50;;;28.80;;
79128;SDS011;68529;43.286;23.360;2023-12-20T09:22:13;22.83;;;18.17;;
79128;SDS011;68529;43.286;23.360;2023-12-20T09:24:39;20.20;;;15.90;;
79128;SDS011;68529;43.286;23.360;2023-12-20T09:27:07;19.83;;;16.57;;
79128;SDS011;68529;43.286;23.360;2023-12-20T09:29:32;23.30;;;17.63;;
79128;SDS011;68529;43.286;23.360;2023-12-20T09:31:58;26.87;;;19.67;;
79128;SDS011;68529;43.286;23.360;2023-12-20T09:34:23;18.10;;;14.10;;
79128;SDS011;68529;43.286;23.360;2023-12-20T09:36:50;14.87;;;11.97;;
79128;SDS011;68529;43.286;23.360;2023-12-20T09:39:17;25.97;;;17.17;;
79128;SDS011;68529;43.286;23.360;2023-12-20T09:41:55;23.40;;;16.83;;
79128;SDS011;68529;43.286;23.360;2023-12-20T09:44:27;19.87;;;13.47;;
79128;SDS011;68529;43.286;23.360;2023-12-20T09:46:54;27.97;;;21.03;;
79128;SDS011;68529;43.286;23.360;2023-12-20T09:49:20;28.17;;;18.20;;
79128;SDS011;68529;43.286;23.360;2023-12-20T10:20:21;4.40;;;3.90;;
79128;SDS011;68529;43.286;23.360;2023-12-20T10:22:47;5.50;;;3.87;;
79128;SDS011;68529;43.286;23.360;2023-12-20T10:25:13;5.40;;;4.70;;
79128;SDS011;68529;43.286;23.360;2023-12-20T10:27:39;6.80;;;4.03;;
79128;SDS011;68529;43.286;23.360;2023-12-20T10:30:04;4.47;;;4.07;;
79128;SDS011;68529;43.286;23.360;2023-12-20T10:32:30;5.97;;;3.90;;
79128;SDS011;68529;43.286;23.360;2023-12-20T10:34:56;4.67;;;3.63;;
79128;SDS011;68529;43.286;23.360;2023-12-20T10:47:27;15.37;;;10.20;;
79128;SDS011;68529;43.286;23.360;2023-12-20T10:49:55;15.13;;;8.50;;
79128;SDS011;68529;43.286;23.360;2023-12-20T10:52:23;16.13;;;9.50;;
79128;SDS011;68529;43.286;23.360;2023-12-20T10:54:50;8.27;;;7.10;;
79128;SDS011;68529;43.286;23.360;2023-12-20T10:57:15;8.80;;;7.07;;
79128;SDS011;68529;43.286;23.360;2023-12-20T10:59:43;6.83;;;6.13;;
79128;SDS011;68529;43.286;23.360;2023-12-20T11:02:11;7.73;;;6.00;;
79128;SDS011;68529;43.286;23.360;2023-12-20T11:04:39;6.53;;;5.87;;
79128;SDS011;68529;43.286;23.360;2023-12-20T11:07:18;7.03;;;6.33;;
79128;SDS011;68529;43.286;23.360;2023-12-20T11:09:49;10.10;;;7.70;;
79128;SDS011;68529;43.286;23.360;2023-12-20T11:12:36;5.70;;;5.10;;
79128;SDS011;68529;43.286;23.360;2023-12-20T11:15:07;6.13;;;4.90;;
79128;SDS011;68529;43.286;23.360;2023-12-20T11:17:33;4.50;;;4.17;;
79128;SDS011;68529;43.286;23.360;2023-12-20T11:22:28;5.80;;;5.07;;
79128;SDS011;68529;43.286;23.360;2023-12-20T11:27:33;4.70;;;4.10;;
79128;SDS011;68529;43.286;23.360;2023-12-20T11:29:59;5.33;;;3.87;;
79128;SDS011;68529;43.286;23.360;2023-12-20T11:32:28;3.90;;;3.60;;
79128;SDS011;68529;43.286;23.360;2023-12-20T11:34:58;7.67;;;4.63;;
79128;SDS011;68529;43.286;23.360;2023-12-20T11:37:36;15.97;;;12.77;;
79128;SDS011;68529;43.286;23.360;2023-12-20T11:40:05;11.13;;;9.03;;
79128;SDS011;68529;43.286;23.360;2023-12-20T11:42:39;5.80;;;5.17;;
79128;SDS011;68529;43.286;23.360;2023-12-20T11:45:11;6.50;;;5.33;;
79128;SDS011;68529;43.286;23.360;2023-12-20T11:47:45;5.87;;;5.27;;
79128;SDS011;68529;43.286;23.360;2023-12-20T11:50:11;7.07;;;6.17;;
79128;SDS011;68529;43.286;23.360;2023-12-20T11:52:37;9.13;;;8.23;;
79128;SDS011;68529;43.286;23.360;2023-12-20T11:55:03;8.27;;;7.20;;
79128;SDS011;68529;43.286;23.360;2023-12-20T11:57:29;10.27;;;8.50;;
79128;SDS011;68529;43.286;23.360;2023-12-20T11:59:55;8.80;;;7.00;;
79128;SDS011;68529;43.286;23.360;2023-12-20T12:02:21;11.27;;;9.80;;
79128;SDS011;68529;43.286;23.360;2023-12-20T12:04:48;10.63;;;9.00;;
79128;SDS011;68529;43.286;23.360;2023-12-20T12:07:13;10.73;;;9.57;;
79128;SDS011;68529;43.286;23.360;2023-12-20T12:09:39;10.17;;;9.13;;
79128;SDS011;68529;43.286;23.360;2023-12-20T12:12:04;16.97;;;10.97;;
79128;SDS011;68529;43.286;23.360;2023-12-20T12:14:30;11.63;;;10.33;;
79128;SDS011;68529;43.286;23.360;2023-12-20T12:16:56;14.70;;;11.73;;
79128;SDS011;68529;43.286;23.360;2023-12-20T12:19:24;14.10;;;10.97;;
79128;SDS011;68529;43.286;23.360;2023-12-20T12:21:51;10.77;;;8.80;;
79128;SDS011;68529;43.286;23.360;2023-12-20T12:24:31;12.27;;;10.23;;
79128;SDS011;68529;43.286;23.360;2023-12-20T12:26:57;11.73;;;10.13;;
79128;SDS011;68529;43.286;23.360;2023-12-20T12:29:23;12.60;;;10.70;;
79128;SDS011;68529;43.286;23.360;2023-12-20T12:31:49;15.03;;;10.30;;
79128;SDS011;68529;43.286;23.360;2023-12-20T12:34:15;10.83;;;8.70;;
79128;SDS011;68529;43.286;23.360;2023-12-20T12:36:41;10.87;;;7.77;;
79128;SDS011;68529;43.286;23.360;2023-12-20T12:39:06;13.43;;;9.17;;
79128;SDS011;68529;43.286;23.360;2023-12-20T12:41:32;10.43;;;7.83;;
79128;SDS011;68529;43.286;23.360;2023-12-20T12:43:57;15.43;;;13.13;;
79128;SDS011;68529;43.286;23.360;2023-12-20T12:46:23;9.70;;;8.23;;
79128;SDS011;68529;43.286;23.360;2023-12-20T12:48:48;22.70;;;16.33;;
79128;SDS011;68529;43.286;23.360;2023-12-20T12:51:15;13.13;;;10.00;;
79128;SDS011;68529;43.286;23.360;2023-12-20T12:53:41;8.13;;;6.50;;
79128;SDS011;68529;43.286;23.360;2023-12-20T12:56:07;8.93;;;7.10;;
79128;SDS011;68529;43.286;23.360;2023-12-20T12:58:33;8.93;;;7.70;;
79128;SDS011;68529;43.286;23.360;2023-12-20T13:00:58;7.77;;;6.57;;
79128;SDS011;68529;43.286;23.360;2023-12-20T13:03:24;9.57;;;7.17;;
79128;SDS011;68529;43.286;23.360;2023-12-20T13:05:49;8.70;;;6.83;;
79128;SDS011;68529;43.286;23.360;2023-12-20T13:08:15;8.70;;;7.77;;
79128;SDS011;68529;43.286;23.360;2023-12-20T13:10:41;9.57;;;8.67;;
79128;SDS011;68529;43.286;23.360;2023-12-20T13:13:06;14.13;;;12.07;;
79128;SDS011;68529;43.286;23.360;2023-12-20T13:15:31;13.00;;;11.03;;
79128;SDS011;68529;43.286;23.360;2023-12-20T13:17:57;13.40;;;11.20;;
79128;SDS011;68529;43.286;23.360;2023-12-20T13:20:22;12.43;;;11.13;;
79128;SDS011;68529;43.286;23.360;2023-12-20T13:22:48;10.73;;;9.53;;
79128;SDS011;68529;43.286;23.360;2023-12-20T13:25:13;11.37;;;10.10;;
79128;SDS011;68529;43.286;23.360;2023-12-20T13:27:39;10.30;;;9.30;;
79128;SDS011;68529;43.286;23.360;2023-12-20T13:30:05;9.97;;;8.20;;
79128;SDS011;68529;43.286;23.360;2023-12-20T13:32:30;9.90;;;8.03;;
79128;SDS011;68529;43.286;23.360;2023-12-20T13:34:56;9.07;;;8.03;;
79128;SDS011;68529;43.286;23.360;2023-12-20T13:37:21;9.27;;;8.23;;
79128;SDS011;68529;43.286;23.360;2023-12-20T13:39:47;9.43;;;8.00;;
79128;SDS011;68529;43.286;23.360;2023-12-20T13:42:13;8.07;;;6.43;;
79128;SDS011;68529;43.286;23.360;2023-12-20T13:44:39;11.50;;;8.07;;
79128;SDS011;68529;43.286;23.360;2023-12-20T13:47:04;9.57;;;8.57;;
79128;SDS011;68529;43.286;23.360;2023-12-20T13:49:29;11.60;;;7.90;;
79128;SDS011;68529;43.286;23.360;2023-12-20T13:51:55;9.20;;;6.93;;
79128;SDS011;68529;43.286;23.360;2023-12-20T13:54:20;8.10;;;7.30;;
79128;SDS011;68529;43.286;23.360;2023-12-20T13:56:47;10.90;;;8.43;;
79128;SDS011;68529;43.286;23.360;2023-12-20T13:59:12;19.33;;;12.80;;
79128;SDS011;68529;43.286;23.360;2023-12-20T14:01:39;16.40;;;12.37;;
79128;SDS011;68529;43.286;23.360;2023-12-20T14:04:04;12.03;;;9.00;;
79128;SDS011;68529;43.286;23.360;2023-12-20T14:06:29;11.97;;;7.97;;
79128;SDS011;68529;43.286;23.360;2023-12-20T14:08:55;11.57;;;9.57;;
79128;SDS011;68529;43.286;23.360;2023-12-20T14:11:20;27.90;;;19.40;;
79128;SDS011;68529;43.286;23.360;2023-12-20T14:13:46;11.67;;;7.87;;
79128;SDS011;68529;43.286;23.360;2023-12-20T14:16:11;12.67;;;9.10;;
79128;SDS011;68529;43.286;23.360;2023-12-20T14:18:37;13.87;;;11.50;;
79128;SDS011;68529;43.286;23.360;2023-12-20T14:21:05;18.03;;;12.50;;
79128;SDS011;68529;43.286;23.360;2023-12-20T14:23:31;14.93;;;11.20;;
79128;SDS011;68529;43.286;23.360;2023-12-20T14:25:58;48.33;;;27.97;;
79128;SDS011;68529;43.286;23.360;2023-12-20T14:28:24;20.87;;;14.03;;
79128;SDS011;68529;43.286;23.360;2023-12-20T14:30:50;23.10;;;15.43;;
79128;SDS011;68529;43.286;23.360;2023-12-20T14:33:15;17.23;;;12.87;;
79128;SDS011;68529;43.286;23.360;2023-12-20T14:35:41;17.07;;;14.00;;
79128;SDS011;68529;43.286;23.360;2023-12-20T14:38:07;20.87;;;17.57;;
79128;SDS011;68529;43.286;23.360;2023-12-20T14:40:33;20.57;;;16.00;;
79128;SDS011;68529;43.286;23.360;2023-12-20T14:42:58;26.97;;;20.83;;
79128;SDS011;68529;43.286;23.360;2023-12-20T14:45:25;21.73;;;14.20;;
79128;SDS011;68529;43.286;23.360;2023-12-20T14:47:50;18.23;;;15.60;;
79128;SDS011;68529;43.286;23.360;2023-12-20T14:50:16;16.03;;;14.03;;
79128;SDS011;68529;43.286;23.360;2023-12-20T14:52:43;16.50;;;13.73;;
79128;SDS011;68529;43.286;23.360;2023-12-20T14:55:10;24.07;;;18.40;;
79128;SDS011;68529;43.286;23.360;2023-12-20T14:57:35;16.07;;;11.10;;
79128;SDS011;68529;43.286;23.360;2023-12-20T15:00:01;40.03;;;31.30;;
79128;SDS011;68529;43.286;23.360;2023-12-20T15:02:26;27.07;;;22.63;;
79128;SDS011;68529;43.286;23.360;2023-12-20T15:04:51;22.73;;;18.60;;
79128;SDS011;68529;43.286;23.360;2023-12-20T15:07:17;20.63;;;16.67;;
79128;SDS011;68529;43.286;23.360;2023-12-20T15:09:42;32.20;;;26.70;;
79128;SDS011;68529;43.286;23.360;2023-12-20T15:12:11;15.30;;;13.10;;
79128;SDS011;68529;43.286;23.360;2023-12-20T15:14:37;14.00;;;12.50;;
79128;SDS011;68529;43.286;23.360;2023-12-20T15:17:02;17.80;;;12.53;;
79128;SDS011;68529;43.286;23.360;2023-12-20T15:19:28;26.60;;;16.33;;
79128;SDS011;68529;43.286;23.360;2023-12-20T15:21:53;73.47;;;34.43;;
79128;SDS011;68529;43.286;23.360;2023-12-20T15:24:19;35.37;;;21.23;;
79128;SDS011;68529;43.286;23.360;2023-12-20T15:26:52;40.27;;;20.33;;
79128;SDS011;68529;43.286;23.360;2023-12-20T15:29:17;19.90;;;10.87;;
79128;SDS011;68529;43.286;23.360;2023-12-20T15:31:43;14.40;;;9.27;;
79128;SDS011;68529;43.286;23.360;2023-12-20T15:34:09;18.17;;;11.47;;
79128;SDS011;68529;43.286;23.360;2023-12-20T15:36:35;11.70;;;9.00;;
79128;SDS011;68529;43.286;23.360;2023-12-20T15:39:00;17.53;;;9.87;;
79128;SDS011;68529;43.286;23.360;2023-12-20T15:41:26;16.00;;;10.87;;
79128;SDS011;68529;43.286;23.360;2023-12-20T15:43:51;15.87;;;11.50;;
79128;SDS011;68529;43.286;23.360;2023-12-20T15:46:16;14.40;;;11.57;;
79128;SDS011;68529;43.286;23.360;2023-12-20T15:48:42;47.13;;;31.80;;
79128;SDS011;68529;43.286;23.360;2023-12-20T15:51:08;19.20;;;13.70;;
79128;SDS011;68529;43.286;23.360;2023-12-20T15:53:34;26.47;;;18.30;;
79128;SDS011;68529;43.286;23.360;2023-12-20T15:56:00;25.57;;;16.30;;
79128;SDS011;68529;43.286;23.360;2023-12-20T15:58:27;19.93;;;15.60;;
79128;SDS011;68529;43.286;23.360;2023-12-20T16:00:53;16.67;;;13.67;;